createdAt,value
2022-12-04T00:27:28.015Z,72
2022-12-04T00:56:47.011Z,61
2022-12-04T01:25:59.565Z,53
2022-12-04T01:55:04.631Z,45
2022-12-04T02:24:17.249Z,45
2022-12-04T02:53:35.895Z,41
2022-12-04T03:22:54.568Z,39
2022-12-04T03:52:01.602Z,41
2022-12-04T04:21:17.581Z,40
2022-12-04T04:50:22.185Z,39
2022-12-04T05:19:30.545Z,41
2022-12-04T05:48:49.217Z,42
2022-12-04T06:17:52.689Z,48
2022-12-04T06:47:00.721Z,44
2022-12-04T07:15:42.454Z,41
2022-12-04T07:44:48.751Z,43
2022-12-04T08:13:55.839Z,45
2022-12-04T08:43:06.584Z,51
2022-12-04T09:12:21.263Z,54
2022-12-04T09:41:24.771Z,56
2022-12-04T10:10:24.057Z,58
2022-12-04T10:39:37.914Z,58
2022-12-04T11:08:53.223Z,58
2022-12-04T11:38:08.876Z,61
2022-12-04T12:07:24.014Z,57
2022-12-04T12:36:25.080Z,60
2022-12-04T13:05:34.268Z,59
2022-12-04T13:34:51.830Z,57
2022-12-04T14:04:10.943Z,59
2022-12-04T14:33:31.936Z,71
2022-12-04T15:02:50.354Z,63
2022-12-04T15:31:57.198Z,73
2022-12-04T16:01:16.898Z,67
2022-12-04T16:30:26.399Z,59
2022-12-04T16:59:42.991Z,63
2022-12-04T17:28:49.356Z,65
2022-12-04T17:58:08.714Z,64
2022-12-04T18:27:26.039Z,62
2022-12-04T18:56:44.745Z,65
2022-12-04T19:26:05.922Z,69
2022-12-04T19:55:22.261Z,65
2022-12-04T20:24:36.676Z,58
2022-12-04T20:53:42.127Z,68
2022-12-04T21:22:56.124Z,64
2022-12-04T21:52:04.809Z,64
2022-12-04T22:21:14.817Z,65
2022-12-04T22:50:19.377Z,61
2022-12-04T23:19:10.545Z,64
2022-12-04T23:48:14.835Z,59
